createdAt,value
2023-03-11T00:01:10.494Z,82.60
2023-03-11T00:03:38.122Z,81.90
2023-03-11T00:06:05.995Z,81.40
2023-03-11T00:08:34.684Z,82.10
2023-03-11T00:11:02.500Z,82.70
2023-03-11T00:13:30.500Z,82.20
2023-03-11T00:15:59.833Z,82.10
2023-03-11T00:18:28.282Z,81.40
2023-03-11T00:20:56.655Z,82.50
2023-03-11T00:23:24.645Z,81.80
2023-03-11T00:25:53.439Z,81.00
2023-03-11T00:28:22.530Z,81.50
2023-03-11T00:30:50.077Z,81.30
2023-03-11T00:33:17.623Z,80.80
2023-03-11T00:35:45.383Z,80.40
2023-03-11T00:38:15.360Z,80.40
2023-03-11T00:40:43.220Z,80.30
2023-03-11T00:43:11.186Z,80.70
2023-03-11T00:45:38.762Z,80.00
2023-03-11T00:48:06.805Z,80.10
2023-03-11T00:50:35.551Z,81.10
2023-03-11T00:53:04.094Z,80.80
2023-03-11T00:55:33.531Z,80.70
2023-03-11T00:58:02.658Z,80.40
2023-03-11T01:00:30.569Z,79.50
2023-03-11T01:02:59.102Z,79.70
2023-03-11T01:05:28.626Z,79.60
2023-03-11T01:07:56.226Z,79.50
2023-03-11T01:10:24.733Z,79.40
2023-03-11T01:12:52.953Z,79.50
2023-03-11T01:15:25.607Z,79.20
2023-03-11T01:17:53.589Z,79.10
2023-03-11T01:20:21.243Z,79.40
2023-03-11T01:22:50.353Z,79.50
2023-03-11T01:25:18.820Z,78.80
2023-03-11T01:27:46.386Z,78.60
2023-03-11T01:30:15.514Z,79.00
2023-03-11T01:32:44.284Z,78.70
2023-03-11T01:35:22.992Z,78.00
2023-03-11T01:37:51.402Z,77.70
2023-03-11T01:40:33.982Z,77.60
2023-03-11T01:43:02.700Z,77.40
2023-03-11T01:45:30.199Z,77.60
2023-03-11T01:47:58.665Z,77.30
2023-03-11T01:50:27.763Z,76.70
2023-03-11T01:52:55.303Z,77.50
2023-03-11T01:55:23.030Z,77.30
2023-03-11T01:57:51.676Z,77.10
2023-03-11T02:00:19.442Z,77.00
2023-03-11T02:02:51.959Z,77.00
2023-03-11T02:05:21.751Z,76.80
2023-03-11T02:07:50.040Z,76.50
2023-03-11T02:13:47.193Z,75.90
2023-03-11T02:16:25.236Z,76.20
2023-03-11T02:19:11.907Z,76.00
2023-03-11T02:21:40.673Z,75.90
2023-03-11T02:24:24.793Z,75.70
2023-03-11T02:26:59.431Z,75.50
2023-03-11T02:29:28.329Z,75.50
2023-03-11T02:31:58.119Z,75.30
2023-03-11T02:34:30.837Z,75.00
2023-03-11T02:37:00.234Z,74.90
2023-03-11T02:39:31.642Z,74.80
2023-03-11T02:42:00.658Z,75.20
2023-03-11T02:44:39.912Z,74.30
2023-03-11T02:47:08.080Z,74.10
2023-03-11T02:49:36.877Z,74.10
2023-03-11T02:52:05.513Z,73.90
2023-03-11T02:54:33.639Z,73.60
2023-03-11T02:57:01.180Z,73.70
2023-03-11T02:59:29.453Z,73.10
2023-03-11T03:01:57.827Z,73.30
2023-03-11T03:04:28.588Z,73.10
2023-03-11T03:06:57.324Z,73.10
2023-03-11T03:09:24.865Z,73.00
2023-03-11T03:11:53.600Z,72.60
2023-03-11T03:14:21.920Z,72.70
2023-03-11T03:16:50.467Z,72.70
2023-03-11T03:19:18.313Z,72.50
2023-03-11T03:21:45.858Z,72.10
2023-03-11T03:24:14.266Z,71.90
2023-03-11T03:26:42.326Z,72.10
2023-03-11T03:29:10.644Z,72.10
2023-03-11T03:31:39.897Z,72.00
2023-03-11T03:34:07.520Z,71.70
2023-03-11T03:36:36.215Z,71.60
2023-03-11T03:39:04.802Z,71.50
2023-03-11T03:41:35.489Z,71.40
2023-03-11T03:44:03.006Z,71.30
2023-03-11T03:46:30.827Z,71.40
2023-03-11T03:48:58.394Z,70.90
2023-03-11T03:51:25.964Z,70.70
2023-03-11T03:53:54.292Z,70.20
2023-03-11T03:56:21.894Z,70.00
2023-03-11T03:58:49.667Z,69.90
2023-03-11T04:01:17.433Z,67.70
2023-03-11T04:03:45.173Z,69.30
2023-03-11T04:06:21.702Z,69.50
2023-03-11T04:08:49.320Z,68.20
2023-03-11T04:11:16.876Z,67.80
2023-03-11T04:13:44.996Z,68.30
2023-03-11T04:16:17.658Z,67.00
2023-03-11T04:18:45.507Z,67.30
2023-03-11T04:21:13.832Z,67.90
2023-03-11T04:23:41.435Z,67.20
2023-03-11T04:26:09.746Z,63.30
2023-03-11T04:28:37.314Z,64.60
2023-03-11T04:31:05.324Z,65.70
2023-03-11T04:33:33.056Z,64.60
2023-03-11T04:36:00.653Z,64.70
2023-03-11T04:38:28.994Z,65.70
2023-03-11T04:41:00.324Z,67.20
2023-03-11T04:43:27.989Z,64.00
2023-03-11T04:45:56.323Z,65.30
2023-03-11T04:48:25.313Z,63.70
2023-03-11T04:50:53.017Z,63.40
2023-03-11T04:53:20.599Z,65.00
2023-03-11T04:55:48.481Z,65.40
2023-03-11T04:58:16.275Z,65.10
2023-03-11T05:00:43.909Z,65.40
2023-03-11T05:03:11.540Z,65.30
2023-03-11T05:05:39.152Z,65.40
2023-03-11T05:08:07.278Z,65.40
2023-03-11T05:10:34.937Z,65.80
2023-03-11T05:13:02.640Z,64.10
2023-03-11T05:15:31.750Z,64.90
2023-03-11T05:17:59.311Z,63.30
2023-03-11T05:20:27.645Z,63.00
2023-03-11T05:22:55.176Z,63.50
2023-03-11T05:25:26.158Z,63.10
2023-03-11T05:27:53.793Z,60.80
2023-03-11T05:30:22.326Z,62.90
2023-03-11T05:32:53.139Z,63.10
2023-03-11T05:35:20.994Z,64.00
2023-03-11T05:37:50.889Z,61.80
2023-03-11T05:40:18.754Z,62.30
2023-03-11T05:42:47.356Z,63.20
2023-03-11T05:45:17.441Z,63.30
2023-03-11T05:47:45.830Z,62.80
2023-03-11T05:50:14.514Z,62.10
2023-03-11T05:52:56.605Z,61.80
2023-03-11T05:55:24.616Z,62.90
2023-03-11T05:57:53.097Z,64.10
2023-03-11T06:00:21.143Z,63.20
2023-03-11T06:02:49.735Z,62.80
2023-03-11T06:05:18.351Z,62.70
2023-03-11T06:07:48.197Z,61.00
2023-03-11T06:10:16.982Z,60.70
2023-03-11T06:12:45.278Z,62.10
2023-03-11T06:15:12.978Z,61.40
2023-03-11T06:17:40.579Z,59.20
2023-03-11T06:20:08.916Z,59.80
2023-03-11T06:22:40.017Z,60.00
2023-03-11T06:25:09.147Z,60.50
2023-03-11T06:27:36.713Z,60.50
2023-03-11T06:30:05.522Z,58.70
2023-03-11T06:32:35.538Z,58.00
2023-03-11T06:35:04.416Z,59.30
2023-03-11T06:37:31.973Z,59.20
2023-03-11T06:39:59.685Z,60.80
2023-03-11T06:42:27.297Z,58.60
2023-03-11T06:44:54.867Z,59.70
2023-03-11T06:47:22.677Z,58.80
2023-03-11T06:49:51.001Z,60.30
2023-03-11T06:52:29.512Z,58.80
2023-03-11T06:54:57.078Z,57.70
2023-03-11T06:57:35.848Z,59.20
2023-03-11T07:00:09.307Z,58.70
2023-03-11T07:02:37.141Z,59.30
2023-03-11T07:05:06.382Z,60.00
2023-03-11T07:07:33.934Z,60.40
2023-03-11T07:10:01.543Z,60.90
2023-03-11T07:12:30.008Z,58.30
2023-03-11T07:14:58.409Z,59.50
2023-03-11T07:17:26.398Z,59.20
2023-03-11T07:19:54.451Z,58.80
2023-03-11T07:22:21.933Z,58.70
2023-03-11T07:24:52.209Z,58.80
2023-03-11T07:27:20.884Z,60.30
2023-03-11T07:29:49.541Z,59.80
2023-03-11T07:32:17.874Z,60.40
2023-03-11T07:34:46.473Z,58.70
2023-03-11T07:37:15.805Z,55.60
2023-03-11T07:39:44.130Z,59.20
2023-03-11T07:42:12.462Z,58.30
2023-03-11T07:44:40.041Z,59.80
2023-03-11T07:47:36.809Z,59.90
2023-03-11T07:50:04.814Z,60.50
2023-03-11T07:52:32.922Z,59.70
2023-03-11T07:55:04.394Z,59.60
2023-03-11T07:57:32.107Z,60.50
2023-03-11T08:00:00.131Z,59.60
2023-03-11T08:02:28.201Z,57.20
2023-03-11T08:04:56.595Z,57.80
2023-03-11T08:07:25.007Z,58.00
2023-03-11T08:09:53.314Z,58.60
2023-03-11T08:12:21.753Z,58.60
2023-03-11T08:15:01.336Z,56.60
2023-03-11T08:17:33.048Z,57.70
2023-03-11T08:20:01.112Z,57.80
2023-03-11T08:22:33.301Z,58.80
2023-03-11T08:25:02.480Z,58.70
2023-03-11T08:27:31.911Z,58.50
2023-03-11T08:29:59.691Z,58.70
2023-03-11T08:32:27.492Z,56.80
2023-03-11T08:34:56.152Z,57.50
2023-03-11T08:37:25.147Z,56.00
2023-03-11T08:39:56.293Z,56.80
2023-03-11T08:42:29.610Z,57.50
2023-03-11T08:45:02.933Z,57.10
2023-03-11T08:47:37.627Z,56.20
2023-03-11T08:50:10.521Z,59.50
2023-03-11T08:52:40.601Z,57.90
2023-03-11T08:55:12.798Z,56.40
2023-03-11T08:57:44.587Z,57.10
2023-03-11T09:00:14.189Z,57.30
2023-03-11T09:02:44.642Z,57.60
2023-03-11T09:05:12.636Z,57.70
2023-03-11T09:07:40.629Z,58.50
2023-03-11T09:10:08.814Z,58.50
2023-03-11T09:12:37.751Z,58.10
2023-03-11T09:15:06.997Z,59.20
2023-03-11T09:17:36.767Z,58.60
2023-03-11T09:20:05.209Z,58.50
2023-03-11T09:22:32.878Z,59.40
2023-03-11T09:25:03.232Z,58.20
2023-03-11T09:27:30.893Z,57.90
2023-03-11T09:29:58.443Z,58.20
2023-03-11T09:32:26.164Z,57.70
2023-03-11T09:34:53.853Z,58.80
2023-03-11T09:37:21.977Z,57.80
2023-03-11T09:39:50.563Z,57.40
2023-03-11T09:42:27.848Z,57.70
2023-03-11T09:45:04.720Z,58.20
2023-03-11T09:47:52.123Z,57.80
2023-03-11T09:50:23.251Z,58.10
2023-03-11T09:52:59.256Z,57.40
2023-03-11T09:55:46.360Z,58.30
2023-03-11T09:58:19.862Z,57.50
2023-03-11T10:00:53.091Z,57.70
2023-03-11T10:03:27.249Z,57.40
2023-03-11T10:05:56.498Z,57.70
2023-03-11T10:08:28.493Z,57.90
2023-03-11T10:11:01.064Z,57.30
2023-03-11T10:13:34.125Z,57.50
2023-03-11T10:16:04.875Z,57.60
2023-03-11T10:18:40.971Z,57.40
2023-03-11T10:21:09.312Z,57.00
2023-03-11T10:23:57.144Z,57.50
2023-03-11T10:26:42.030Z,58.10
2023-03-11T10:29:10.397Z,58.50
2023-03-11T10:31:44.005Z,58.10
2023-03-11T10:34:22.415Z,58.00
2023-03-11T10:36:50.229Z,58.30
2023-03-11T10:39:17.956Z,58.90
2023-03-11T10:41:52.240Z,58.50
2023-03-11T10:44:25.611Z,58.80
2023-03-11T10:46:53.964Z,58.80
2023-03-11T10:49:22.293Z,59.00
2023-03-11T10:51:51.231Z,59.40
2023-03-11T10:54:24.881Z,59.30
2023-03-11T10:56:55.616Z,59.80
2023-03-11T10:59:23.116Z,60.00
2023-03-11T11:01:59.967Z,60.30
2023-03-11T11:04:33.847Z,60.60
2023-03-11T11:07:21.414Z,60.70
2023-03-11T11:10:08.701Z,60.90
2023-03-11T11:12:36.281Z,61.00
2023-03-11T11:15:03.946Z,61.20
2023-03-11T11:17:33.184Z,61.20
2023-03-11T11:20:13.962Z,61.40
2023-03-11T11:22:48.299Z,61.40
2023-03-11T11:25:35.189Z,61.60
2023-03-11T11:28:20.363Z,61.70
2023-03-11T11:30:55.372Z,61.90
2023-03-11T11:33:34.314Z,62.10
2023-03-11T11:36:04.125Z,62.30
2023-03-11T11:38:33.250Z,62.40
2023-03-11T11:41:03.282Z,62.60
2023-03-11T11:43:34.717Z,62.80
2023-03-11T11:46:05.764Z,63.90
2023-03-11T11:48:39.186Z,64.30
2023-03-11T11:51:18.051Z,65.00
2023-03-11T11:54:07.382Z,64.70
2023-03-11T11:56:35.839Z,64.90
2023-03-11T11:59:06.599Z,65.20
2023-03-11T12:01:43.469Z,65.70
2023-03-11T12:04:31.426Z,65.40
2023-03-11T12:06:59.824Z,65.20
2023-03-11T12:09:46.310Z,65.30
2023-03-11T12:12:28.105Z,65.10
2023-03-11T12:15:18.703Z,65.00
2023-03-11T12:17:48.411Z,64.80
2023-03-11T12:20:15.969Z,64.70
2023-03-11T12:22:47.397Z,64.70
2023-03-11T12:25:23.279Z,64.70
2023-03-11T12:28:05.796Z,64.70
2023-03-11T12:30:38.871Z,64.70
2023-03-11T12:33:11.927Z,64.70
2023-03-11T12:35:40.621Z,64.70
2023-03-11T12:38:08.204Z,64.70
2023-03-11T12:40:47.820Z,64.80
2023-03-11T12:43:26.567Z,64.90
2023-03-11T12:45:56.609Z,65.00
2023-03-11T12:48:30.356Z,65.00
2023-03-11T12:51:00.267Z,65.20
2023-03-11T12:53:43.656Z,65.20
2023-03-11T12:56:18.372Z,65.30
2023-03-11T12:59:00.892Z,65.30
2023-03-11T13:01:47.367Z,65.30
2023-03-11T13:04:22.341Z,65.40
2023-03-11T13:06:56.793Z,65.40
2023-03-11T13:09:24.945Z,65.50
2023-03-11T13:11:53.346Z,65.70
2023-03-11T13:14:31.553Z,66.40
2023-03-11T13:17:19.847Z,65.80
2023-03-11T13:19:49.216Z,65.80
2023-03-11T13:22:37.190Z,66.20
2023-03-11T13:25:20.444Z,66.10
2023-03-11T13:27:50.880Z,66.20
2023-03-11T13:30:26.174Z,66.30
2023-03-11T13:33:06.067Z,66.70
2023-03-11T13:35:55.414Z,66.70
2023-03-11T13:38:26.280Z,66.50
2023-03-11T13:40:54.857Z,66.40
2023-03-11T13:43:24.022Z,66.40
2023-03-11T13:46:17.606Z,66.30
2023-03-11T13:48:48.232Z,66.40
2023-03-11T13:51:28.838Z,66.40
2023-03-11T13:54:07.293Z,66.50
2023-03-11T13:56:40.093Z,66.60
2023-03-11T13:59:23.807Z,66.50
2023-03-11T14:01:57.800Z,66.50
2023-03-11T14:04:32.598Z,66.60
2023-03-11T14:07:01.500Z,66.90
2023-03-11T14:09:30.178Z,66.70
2023-03-11T14:12:04.592Z,66.60
2023-03-11T14:14:45.468Z,66.60
2023-03-11T14:17:18.026Z,66.60
2023-03-11T14:20:02.990Z,66.60
2023-03-11T14:22:32.240Z,66.70
2023-03-11T14:25:01.714Z,66.80
2023-03-11T14:27:30.082Z,66.90
2023-03-11T14:29:57.604Z,66.90
2023-03-11T14:32:28.804Z,67.10
2023-03-11T14:34:56.468Z,67.00
2023-03-11T14:37:23.909Z,67.30
2023-03-11T14:39:53.921Z,67.10
2023-03-11T14:42:27.232Z,67.10
2023-03-11T14:45:03.098Z,67.10
2023-03-11T14:47:44.416Z,67.90
2023-03-11T14:50:22.959Z,67.20
2023-03-11T14:53:01.568Z,67.20
2023-03-11T14:55:33.953Z,67.10
2023-03-11T14:58:04.250Z,67.30
2023-03-11T15:00:37.683Z,67.30
2023-03-11T15:03:19.206Z,67.30
2023-03-11T15:05:52.852Z,67.30
2023-03-11T15:08:21.394Z,67.40
2023-03-11T15:11:07.648Z,67.50
2023-03-11T15:13:35.993Z,67.50
2023-03-11T15:16:06.220Z,67.60
2023-03-11T15:18:37.748Z,67.60
2023-03-11T15:21:15.200Z,67.70
2023-03-11T15:23:51.147Z,67.80
2023-03-11T15:26:23.134Z,67.80
2023-03-11T15:28:55.162Z,68.20
2023-03-11T15:31:22.631Z,68.10
2023-03-11T15:33:52.666Z,68.20
2023-03-11T15:36:44.002Z,68.20
2023-03-11T15:39:13.951Z,68.20
2023-03-11T15:41:45.295Z,68.10
2023-03-11T15:44:33.659Z,68.20
2023-03-11T15:47:01.954Z,68.20
2023-03-11T15:49:29.959Z,68.30
2023-03-11T15:52:01.111Z,68.20
2023-03-11T15:54:29.863Z,68.20
2023-03-11T15:56:58.864Z,68.30
2023-03-11T15:59:26.627Z,68.50
2023-03-11T16:01:54.155Z,68.40
2023-03-11T16:04:23.020Z,68.40
2023-03-11T16:07:02.918Z,68.40
2023-03-11T16:09:34.515Z,68.60
2023-03-11T16:12:02.719Z,68.60
2023-03-11T16:14:31.174Z,68.90
2023-03-11T16:16:59.375Z,68.80
2023-03-11T16:19:27.051Z,68.80
2023-03-11T16:21:55.378Z,68.80
2023-03-11T16:24:24.559Z,69.00
2023-03-11T16:26:53.834Z,69.10
2023-03-11T16:29:23.458Z,68.90
2023-03-11T16:31:51.044Z,69.00
2023-03-11T16:34:19.268Z,69.10
2023-03-11T16:36:46.895Z,68.90
2023-03-11T16:39:14.815Z,69.10
2023-03-11T16:41:43.173Z,69.00
2023-03-11T16:44:11.060Z,69.20
2023-03-11T16:46:38.925Z,69.10
2023-03-11T16:49:07.481Z,69.20
2023-03-11T16:51:35.761Z,69.30
2023-03-11T16:54:03.320Z,69.60
2023-03-11T16:56:31.584Z,69.60
2023-03-11T16:58:59.939Z,69.60
2023-03-11T17:01:27.629Z,69.50
2023-03-11T17:03:55.961Z,69.60
2023-03-11T17:06:23.484Z,69.70
2023-03-11T17:08:51.815Z,69.50
2023-03-11T17:11:22.208Z,69.40
2023-03-11T17:13:50.886Z,70.00
2023-03-11T17:16:19.500Z,70.30
2023-03-11T17:18:47.267Z,70.70
2023-03-11T17:21:16.485Z,70.70
2023-03-11T17:23:45.201Z,70.30
2023-03-11T17:26:13.979Z,70.80
2023-03-11T17:28:42.060Z,70.70
2023-03-11T17:31:16.624Z,71.10
2023-03-11T17:33:45.421Z,70.90
2023-03-11T17:36:15.278Z,71.10
2023-03-11T17:38:46.881Z,71.30
2023-03-11T17:41:16.583Z,71.30
2023-03-11T17:43:45.320Z,71.30
2023-03-11T17:46:18.424Z,71.50
2023-03-11T17:48:46.823Z,71.90
2023-03-11T17:51:19.383Z,71.90
2023-03-11T17:53:48.327Z,71.90
2023-03-11T17:56:16.868Z,71.90
2023-03-11T17:58:45.256Z,72.40
2023-03-11T18:01:15.602Z,72.40
2023-03-11T18:03:43.369Z,72.20
2023-03-11T18:06:11.179Z,72.60
2023-03-11T18:08:38.830Z,72.70
2023-03-11T18:11:07.964Z,73.20
2023-03-11T18:13:36.580Z,74.50
2023-03-11T18:16:09.825Z,74.20
2023-03-11T18:18:39.160Z,73.80
2023-03-11T18:21:08.275Z,74.10
2023-03-11T18:23:36.062Z,73.90
2023-03-11T18:26:05.614Z,73.00
2023-03-11T18:28:33.529Z,73.30
2023-03-11T18:31:12.539Z,76.60
2023-03-11T18:33:40.448Z,75.20
2023-03-11T18:36:15.018Z,75.70
2023-03-11T18:38:43.390Z,75.10
2023-03-11T18:41:12.172Z,75.40
2023-03-11T18:43:40.022Z,74.90
2023-03-11T18:46:08.887Z,75.60
2023-03-11T18:48:36.651Z,74.90
2023-03-11T18:51:04.555Z,74.70
2023-03-11T18:53:32.867Z,74.70
2023-03-11T18:56:01.493Z,74.70
2023-03-11T18:58:29.739Z,74.70
2023-03-11T19:01:03.794Z,75.10
2023-03-11T19:03:31.375Z,74.60
2023-03-11T19:06:00.682Z,74.50
2023-03-11T19:08:29.176Z,74.30
2023-03-11T19:10:56.801Z,74.30
2023-03-11T19:13:29.756Z,74.00
2023-03-11T19:16:05.287Z,74.20
2023-03-11T19:18:33.637Z,74.40
2023-03-11T19:21:02.486Z,73.50
2023-03-11T19:23:40.249Z,73.60
2023-03-11T19:26:08.510Z,74.20
2023-03-11T19:28:37.248Z,75.00
2023-03-11T19:31:06.024Z,74.80
2023-03-11T19:33:33.783Z,74.50
2023-03-11T19:36:03.934Z,73.90
2023-03-11T19:38:32.336Z,75.30
2023-03-11T19:41:04.594Z,74.80
2023-03-11T19:43:33.063Z,74.10
2023-03-11T19:46:00.613Z,75.40
2023-03-11T19:48:28.357Z,74.60
2023-03-11T19:50:56.661Z,74.80
2023-03-11T19:53:25.311Z,74.90
2023-03-11T19:55:54.248Z,75.60
2023-03-11T19:58:22.097Z,74.60
2023-03-11T20:00:50.001Z,75.10
2023-03-11T20:03:17.780Z,76.40
2023-03-11T20:05:46.292Z,76.90
2023-03-11T20:08:15.390Z,75.60
2023-03-11T20:10:44.141Z,74.90
2023-03-11T20:13:11.994Z,76.10
2023-03-11T20:15:40.413Z,76.70
2023-03-11T20:18:07.989Z,76.60
2023-03-11T20:20:38.701Z,76.40
2023-03-11T20:23:06.811Z,76.70
2023-03-11T20:25:35.111Z,76.30
2023-03-11T20:28:03.031Z,77.10
2023-03-11T20:30:31.629Z,77.90
2023-03-11T20:33:00.086Z,76.70
2023-03-11T20:35:27.862Z,77.90
2023-03-11T20:37:55.555Z,76.80
2023-03-11T20:40:23.168Z,78.10
2023-03-11T20:42:50.752Z,77.30
2023-03-11T20:45:22.653Z,77.90
2023-03-11T20:47:51.627Z,78.80
2023-03-11T20:50:20.078Z,78.10
2023-03-11T20:52:47.706Z,78.80
2023-03-11T20:55:15.300Z,78.90
2023-03-11T20:57:42.912Z,78.20
2023-03-11T21:00:12.042Z,78.30
2023-03-11T21:02:41.605Z,78.00
2023-03-11T21:05:10.456Z,78.50
2023-03-11T21:07:38.039Z,80.20
2023-03-11T21:10:06.820Z,78.50
2023-03-11T21:12:35.358Z,79.10
2023-03-11T21:15:03.020Z,79.30
2023-03-11T21:17:31.108Z,79.40
2023-03-11T21:19:59.127Z,80.30
2023-03-11T21:22:27.487Z,80.10
2023-03-11T21:24:56.560Z,80.00
2023-03-11T21:27:27.393Z,80.20
2023-03-11T21:29:59.357Z,81.10
2023-03-11T21:32:28.158Z,80.70
2023-03-11T21:34:57.444Z,79.30
2023-03-11T21:37:26.121Z,79.10
2023-03-11T21:39:54.594Z,79.80
2023-03-11T21:42:22.460Z,79.00
2023-03-11T21:44:51.890Z,79.10
2023-03-11T21:47:20.391Z,78.40
2023-03-11T21:49:48.237Z,77.60
2023-03-11T21:52:15.778Z,78.70
2023-03-11T21:54:44.262Z,79.60
2023-03-11T21:57:12.631Z,80.10
2023-03-11T21:59:40.218Z,80.00
2023-03-11T22:02:11.975Z,79.50
2023-03-11T22:04:39.644Z,80.40
2023-03-11T22:07:07.425Z,79.50
2023-03-11T22:09:35.862Z,79.70
2023-03-11T22:12:04.476Z,79.20
2023-03-11T22:14:32.968Z,80.20
2023-03-11T22:17:00.586Z,80.00
2023-03-11T22:19:28.996Z,79.50
2023-03-11T22:21:56.676Z,79.10
2023-03-11T22:24:24.216Z,79.80
2023-03-11T22:26:52.961Z,79.30
2023-03-11T22:29:20.519Z,79.40
2023-03-11T22:31:48.091Z,78.90
2023-03-11T22:34:16.511Z,78.90
2023-03-11T22:36:44.002Z,78.70
2023-03-11T22:39:11.534Z,78.40
2023-03-11T22:41:39.025Z,78.60
2023-03-11T22:44:07.042Z,78.70
2023-03-11T22:46:34.625Z,78.30
2023-03-11T22:49:02.221Z,79.10
2023-03-11T22:51:30.525Z,79.30
2023-03-11T22:53:58.101Z,78.40
2023-03-11T22:56:26.345Z,78.50
2023-03-11T22:58:53.866Z,79.50
2023-03-11T23:01:21.676Z,79.40
2023-03-11T23:03:49.242Z,79.30
2023-03-11T23:06:17.717Z,78.50
2023-03-11T23:08:46.304Z,79.60
2023-03-11T23:11:15.918Z,80.20
2023-03-11T23:13:44.380Z,80.00
2023-03-11T23:16:17.708Z,79.70
2023-03-11T23:18:47.139Z,79.90
2023-03-11T23:21:25.025Z,79.40
2023-03-11T23:23:52.960Z,79.30
2023-03-11T23:26:21.286Z,78.90
2023-03-11T23:28:52.180Z,78.80
2023-03-11T23:31:20.906Z,78.90
2023-03-11T23:33:48.497Z,79.00
2023-03-11T23:36:18.038Z,78.80
2023-03-11T23:38:46.397Z,78.60
2023-03-11T23:41:18.976Z,78.30
2023-03-11T23:43:47.332Z,79.00
2023-03-11T23:46:15.575Z,78.80
2023-03-11T23:48:43.298Z,78.20
2023-03-11T23:51:10.860Z,78.40
2023-03-11T23:53:38.712Z,78.50
2023-03-11T23:56:13.653Z,78.60
2023-03-11T23:58:41.373Z,78.50
